createdAt,value
2022-11-17T00:01:43.188Z,2.07
2022-11-17T00:04:11.762Z,1.90
2022-11-17T00:06:40.168Z,1.90
2022-11-17T00:09:17.703Z,1.70
2022-11-17T00:12:03.605Z,1.90
2022-11-17T00:14:38.162Z,1.93
2022-11-17T00:17:10.828Z,2.13
2022-11-17T00:19:56.939Z,2.00
2022-11-17T00:22:26.358Z,2.10
2022-11-17T00:24:54.581Z,2.20
2022-11-17T00:27:23.169Z,1.90
2022-11-17T00:29:52.104Z,2.10
2022-11-17T00:32:48.112Z,2.00
2022-11-17T00:35:16.592Z,1.80
2022-11-17T00:38:09.426Z,2.00
2022-11-17T00:40:38.207Z,2.30
2022-11-17T00:43:06.548Z,2.23
2022-11-17T00:45:34.955Z,1.93
2022-11-17T00:48:06.243Z,2.13
2022-11-17T00:50:34.608Z,2.00
2022-11-17T00:53:03.839Z,2.10
2022-11-17T00:55:32.105Z,2.07
2022-11-17T00:58:01.496Z,2.03
2022-11-17T01:00:30.498Z,2.40
2022-11-17T01:03:00.218Z,1.97
2022-11-17T01:05:32.980Z,2.03
2022-11-17T01:08:01.441Z,2.17
2022-11-17T01:10:30.542Z,2.10
2022-11-17T01:12:59.639Z,2.23
2022-11-17T01:15:30.668Z,2.53
2022-11-17T01:17:59.073Z,2.20
2022-11-17T01:20:30.469Z,2.30
2022-11-17T01:22:58.622Z,2.43
2022-11-17T01:25:27.104Z,2.40
2022-11-17T01:27:55.466Z,2.83
2022-11-17T01:30:26.723Z,2.70
2022-11-17T01:32:55.250Z,2.80
2022-11-17T01:35:23.744Z,2.67
2022-11-17T01:37:53.676Z,3.10
2022-11-17T01:40:22.154Z,2.87
2022-11-17T01:42:50.511Z,3.30
2022-11-17T01:45:22.954Z,3.70
2022-11-17T01:47:57.459Z,2.97
2022-11-17T01:50:39.341Z,3.00
2022-11-17T01:53:12.244Z,3.40
2022-11-17T01:55:45.886Z,3.53
2022-11-17T01:58:17.744Z,3.60
2022-11-17T02:00:46.266Z,3.10
2022-11-17T02:03:15.869Z,3.70
2022-11-17T02:05:51.952Z,3.60
2022-11-17T02:08:24.273Z,4.17
2022-11-17T02:10:53.546Z,3.87
2022-11-17T02:13:23.057Z,4.00
2022-11-17T02:15:51.482Z,3.93
2022-11-17T02:18:20.727Z,4.47
2022-11-17T02:21:01.600Z,4.20
2022-11-17T02:23:57.753Z,4.10
2022-11-17T02:26:53.034Z,5.00
2022-11-17T02:29:29.851Z,4.90
2022-11-17T02:32:05.655Z,4.73
2022-11-17T02:34:46.812Z,4.40
2022-11-17T02:37:23.477Z,4.27
2022-11-17T02:40:00.944Z,4.30
2022-11-17T02:42:53.785Z,4.60
2022-11-17T02:45:27.674Z,4.70
2022-11-17T02:47:58.750Z,4.60
2022-11-17T02:50:28.845Z,4.93
2022-11-17T02:52:57.847Z,4.60
2022-11-17T02:55:27.836Z,5.00
2022-11-17T02:57:55.943Z,4.93
2022-11-17T03:00:28.069Z,5.20
2022-11-17T03:03:14.826Z,5.40
2022-11-17T03:05:53.018Z,5.10
2022-11-17T03:08:33.262Z,5.17
2022-11-17T03:11:04.323Z,5.77
2022-11-17T03:13:46.238Z,5.40
2022-11-17T03:16:26.171Z,5.90
2022-11-17T03:19:05.947Z,5.80
2022-11-17T03:21:39.495Z,6.17
2022-11-17T03:24:13.173Z,5.63
2022-11-17T03:26:46.875Z,6.00
2022-11-17T03:29:19.085Z,6.40
2022-11-17T03:31:52.027Z,6.03
2022-11-17T03:34:30.810Z,6.50
2022-11-17T03:37:04.076Z,6.93
2022-11-17T03:39:34.972Z,6.87
2022-11-17T03:42:07.651Z,7.17
2022-11-17T03:44:41.368Z,7.50
2022-11-17T03:47:13.803Z,7.97
2022-11-17T03:49:51.190Z,7.83
2022-11-17T03:52:21.685Z,8.17
2022-11-17T03:54:52.390Z,8.00
2022-11-17T03:57:27.995Z,8.77
2022-11-17T04:00:02.730Z,8.90
2022-11-17T04:02:32.834Z,8.90
2022-11-17T04:05:07.099Z,9.27
2022-11-17T04:07:37.664Z,8.83
2022-11-17T04:10:07.683Z,9.80
2022-11-17T04:12:53.011Z,9.67
2022-11-17T04:15:47.518Z,9.23
2022-11-17T04:18:17.613Z,8.77
2022-11-17T04:20:46.533Z,9.43
2022-11-17T04:23:16.559Z,8.50
2022-11-17T04:26:03.621Z,8.77
2022-11-17T04:28:39.748Z,9.33
2022-11-17T04:31:11.028Z,9.73
2022-11-17T04:33:42.431Z,9.67
2022-11-17T04:36:12.569Z,9.33
2022-11-17T04:38:43.869Z,9.07
2022-11-17T04:41:31.126Z,9.23
2022-11-17T04:43:59.773Z,8.67
2022-11-17T04:46:28.654Z,9.47
2022-11-17T04:48:59.093Z,9.27
2022-11-17T04:51:28.757Z,8.40
2022-11-17T04:53:57.483Z,8.77
2022-11-17T04:56:26.836Z,8.63
2022-11-17T04:58:55.278Z,8.57
2022-11-17T05:01:25.155Z,9.30
2022-11-17T05:03:54.911Z,9.87
2022-11-17T05:06:26.924Z,8.83
2022-11-17T05:08:57.118Z,9.90
2022-11-17T05:11:46.530Z,9.17
2022-11-17T05:14:17.338Z,8.40
2022-11-17T05:17:08.716Z,8.40
2022-11-17T05:19:39.425Z,8.30
2022-11-17T05:22:24.811Z,8.77
2022-11-17T05:24:53.035Z,8.50
2022-11-17T05:27:21.793Z,8.00
2022-11-17T05:29:49.853Z,8.20
2022-11-17T05:32:19.148Z,7.90
2022-11-17T05:34:47.357Z,7.90
2022-11-17T05:37:17.701Z,8.50
2022-11-17T05:39:46.019Z,7.70
2022-11-17T05:42:14.568Z,7.83
2022-11-17T05:44:44.215Z,7.93
2022-11-17T05:47:12.685Z,7.97
2022-11-17T05:49:41.038Z,7.60
2022-11-17T05:52:09.256Z,7.10
2022-11-17T05:54:38.866Z,6.97
2022-11-17T05:57:11.213Z,6.53
2022-11-17T05:59:44.795Z,6.63
2022-11-17T06:02:16.811Z,6.67
2022-11-17T06:04:46.479Z,6.97
2022-11-17T06:07:15.315Z,7.00
2022-11-17T06:09:45.626Z,7.33
2022-11-17T06:12:15.571Z,6.07
2022-11-17T06:14:45.405Z,6.53
2022-11-17T06:17:22.583Z,7.03
2022-11-17T06:19:56.569Z,6.53
2022-11-17T06:22:28.006Z,6.27
2022-11-17T06:25:00.206Z,7.03
2022-11-17T06:27:29.356Z,6.97
2022-11-17T06:29:59.379Z,6.10
2022-11-17T06:32:29.367Z,6.13
2022-11-17T06:34:58.822Z,5.30
2022-11-17T06:37:28.260Z,5.40
2022-11-17T06:39:58.563Z,5.43
2022-11-17T06:42:42.871Z,5.40
2022-11-17T06:45:12.402Z,5.63
2022-11-17T06:47:41.177Z,5.10
2022-11-17T06:50:10.650Z,5.13
2022-11-17T06:52:41.393Z,5.03
2022-11-17T06:55:10.221Z,5.63
2022-11-17T06:57:39.939Z,5.23
2022-11-17T07:00:09.742Z,4.90
2022-11-17T07:02:38.493Z,6.10
2022-11-17T07:05:07.176Z,5.50
2022-11-17T07:07:35.837Z,4.90
2022-11-17T07:10:04.972Z,5.33
2022-11-17T07:12:35.153Z,5.33
2022-11-17T07:15:05.413Z,4.93
2022-11-17T07:17:33.847Z,4.83
2022-11-17T07:20:02.192Z,5.00
2022-11-17T07:22:31.603Z,4.70
2022-11-17T07:25:00.075Z,5.50
2022-11-17T07:27:28.513Z,4.70
2022-11-17T07:29:57.903Z,4.37
2022-11-17T07:32:28.806Z,4.10
2022-11-17T07:34:57.383Z,4.40
2022-11-17T07:37:25.770Z,4.57
2022-11-17T07:39:54.183Z,4.00
2022-11-17T07:42:23.125Z,4.13
2022-11-17T07:44:52.421Z,4.40
2022-11-17T07:47:21.474Z,4.30
2022-11-17T07:49:53.804Z,4.60
2022-11-17T07:52:22.295Z,4.20
2022-11-17T07:54:51.018Z,4.47
2022-11-17T07:57:20.544Z,4.20
2022-11-17T07:59:49.629Z,4.37
2022-11-17T08:02:24.214Z,4.20
2022-11-17T08:04:54.933Z,4.33
2022-11-17T08:07:23.484Z,4.00
2022-11-17T08:09:51.948Z,4.23
2022-11-17T08:12:20.403Z,4.07
2022-11-17T08:14:49.144Z,4.00
2022-11-17T08:17:21.044Z,4.43
2022-11-17T08:19:49.424Z,4.10
2022-11-17T08:22:19.384Z,4.13
2022-11-17T08:24:49.058Z,3.67
2022-11-17T08:27:17.275Z,4.40
2022-11-17T08:29:45.760Z,3.90
2022-11-17T08:32:14.084Z,3.93
2022-11-17T08:34:42.606Z,3.63
2022-11-17T08:37:11.745Z,4.10
2022-11-17T08:39:44.871Z,3.63
2022-11-17T08:42:14.677Z,3.63
2022-11-17T08:44:43.283Z,3.57
2022-11-17T08:47:11.711Z,3.60
2022-11-17T08:49:39.783Z,4.30
2022-11-17T08:52:08.738Z,3.37
2022-11-17T08:54:37.555Z,3.30
2022-11-17T08:57:07.932Z,3.40
2022-11-17T08:59:39.144Z,3.53
2022-11-17T09:02:08.314Z,3.80
2022-11-17T09:04:37.982Z,3.43
2022-11-17T09:07:08.029Z,5.83
2022-11-17T09:09:37.189Z,3.37
2022-11-17T09:12:10.292Z,3.40
2022-11-17T09:14:39.017Z,3.93
2022-11-17T09:17:07.650Z,3.70
2022-11-17T09:19:36.077Z,3.43
2022-11-17T09:22:04.227Z,3.40
2022-11-17T09:24:33.187Z,3.00
2022-11-17T09:27:03.171Z,3.80
2022-11-17T09:29:33.859Z,3.03
2022-11-17T09:32:02.347Z,3.60
2022-11-17T09:34:31.187Z,3.73
2022-11-17T09:37:00.654Z,3.10
2022-11-17T09:39:29.117Z,3.70
2022-11-17T09:41:58.774Z,3.50
2022-11-17T09:44:40.404Z,3.33
2022-11-17T09:47:20.902Z,3.77
2022-11-17T09:49:59.545Z,3.70
2022-11-17T09:52:34.659Z,3.10
2022-11-17T09:55:05.819Z,3.20
2022-11-17T09:57:43.550Z,3.40
2022-11-17T10:00:22.257Z,4.17
2022-11-17T10:02:55.046Z,3.33
2022-11-17T10:05:29.554Z,3.90
2022-11-17T10:08:08.423Z,3.70
2022-11-17T10:10:42.289Z,3.30
2022-11-17T10:13:21.279Z,2.90
2022-11-17T10:15:53.785Z,2.80
2022-11-17T10:18:22.374Z,2.40
2022-11-17T10:20:51.212Z,2.27
2022-11-17T10:23:22.375Z,2.40
2022-11-17T10:26:00.007Z,1.90
2022-11-17T10:28:30.684Z,1.90
2022-11-17T10:31:03.623Z,1.87
2022-11-17T10:33:39.672Z,1.87
2022-11-17T10:36:17.212Z,1.63
2022-11-17T10:38:51.651Z,1.60
2022-11-17T10:41:23.187Z,1.47
2022-11-17T10:44:01.551Z,1.60
2022-11-17T10:46:43.268Z,1.43
2022-11-17T10:49:26.743Z,1.33
2022-11-17T10:52:06.629Z,1.67
2022-11-17T10:54:34.775Z,0.97
2022-11-17T10:57:07.737Z,1.20
2022-11-17T10:59:49.680Z,1.20
2022-11-17T11:02:32.201Z,1.37
2022-11-17T11:05:11.890Z,1.83
2022-11-17T11:07:40.804Z,16.77
2022-11-17T11:10:17.319Z,1.40
2022-11-17T11:12:54.645Z,2.00
2022-11-17T11:15:24.945Z,0.90
2022-11-17T11:17:55.066Z,1.00
2022-11-17T11:20:34.963Z,1.57
2022-11-17T11:23:14.790Z,1.20
2022-11-17T11:25:50.484Z,1.10
2022-11-17T11:28:34.752Z,0.90
2022-11-17T11:31:15.406Z,1.10
2022-11-17T11:33:52.589Z,1.00
2022-11-17T11:36:32.906Z,1.20
2022-11-17T11:39:08.388Z,1.20
2022-11-17T11:42:06.356Z,0.63
2022-11-17T11:44:56.809Z,0.80
2022-11-17T11:47:44.068Z,1.50
2022-11-17T11:50:19.810Z,0.87
2022-11-17T11:52:53.074Z,0.90
2022-11-17T11:55:26.669Z,14.30
2022-11-17T11:58:05.692Z,1.30
2022-11-17T12:00:35.662Z,1.43
2022-11-17T12:03:15.159Z,2.23
2022-11-17T12:05:59.394Z,3.40
2022-11-17T12:08:36.797Z,2.20
2022-11-17T12:11:29.321Z,1.10
2022-11-17T12:14:00.009Z,1.43
2022-11-17T12:16:32.010Z,1.30
2022-11-17T12:19:01.271Z,2.00
2022-11-17T12:21:32.185Z,2.83
2022-11-17T12:24:18.163Z,1.30
2022-11-17T12:26:46.771Z,1.80
2022-11-17T12:29:36.051Z,1.83
2022-11-17T12:32:04.492Z,3.07
2022-11-17T12:34:35.988Z,1.33
2022-11-17T12:37:22.741Z,1.20
2022-11-17T12:40:07.174Z,1.30
2022-11-17T12:42:39.228Z,1.40
2022-11-17T12:45:14.098Z,1.13
2022-11-17T12:47:59.534Z,2.40
2022-11-17T12:50:51.368Z,2.20
2022-11-17T12:53:37.453Z,1.60
2022-11-17T12:56:32.161Z,1.97
2022-11-17T12:59:13.133Z,2.57
2022-11-17T13:01:48.634Z,2.20
2022-11-17T13:04:19.995Z,3.90
2022-11-17T13:07:02.765Z,2.90
2022-11-17T13:09:35.085Z,2.83
2022-11-17T13:12:07.234Z,3.03
2022-11-17T13:14:37.007Z,2.13
2022-11-17T13:17:07.311Z,2.07
2022-11-17T13:19:41.480Z,2.70
2022-11-17T13:22:17.538Z,2.47
2022-11-17T13:24:49.758Z,2.33
2022-11-17T13:27:26.279Z,1.43
2022-11-17T13:30:14.717Z,1.93
2022-11-17T13:32:44.923Z,3.93
2022-11-17T13:35:24.233Z,1.87
2022-11-17T13:38:08.228Z,5.90
2022-11-17T13:40:40.159Z,7.07
2022-11-17T13:43:12.938Z,2.53
2022-11-17T13:45:43.471Z,2.90
2022-11-17T14:02:55.348Z,2.87
2022-11-17T14:05:26.356Z,2.17
2022-11-17T14:07:57.075Z,2.30
2022-11-17T14:10:38.744Z,2.07
2022-11-17T14:13:30.055Z,2.00
2022-11-17T14:16:02.019Z,1.87
2022-11-17T14:18:36.882Z,2.00
2022-11-17T14:21:11.305Z,1.80
2022-11-17T14:23:40.586Z,2.53
2022-11-17T14:26:20.824Z,3.10
2022-11-17T14:28:50.068Z,2.17
2022-11-17T14:31:19.170Z,2.53
2022-11-17T14:33:50.785Z,2.40
2022-11-17T14:36:20.021Z,2.90
2022-11-17T14:38:49.801Z,2.60
2022-11-17T14:41:20.607Z,2.47
2022-11-17T14:43:50.175Z,2.03
2022-11-17T14:46:24.023Z,2.40
2022-11-17T14:48:55.579Z,2.40
2022-11-17T14:51:24.029Z,2.30
2022-11-17T14:53:52.624Z,2.77
2022-11-17T14:56:23.751Z,1.50
2022-11-17T14:58:58.229Z,1.70
2022-11-17T15:01:29.523Z,1.53
2022-11-17T15:04:15.349Z,1.73
2022-11-17T15:06:50.932Z,1.50
2022-11-17T15:09:20.719Z,1.60
2022-11-17T15:11:53.021Z,2.23
2022-11-17T15:14:22.783Z,1.70
2022-11-17T15:16:51.663Z,1.50
2022-11-17T15:19:21.613Z,1.70
2022-11-17T15:21:50.003Z,1.53
2022-11-17T15:24:18.738Z,1.60
2022-11-17T15:26:47.648Z,1.80
2022-11-17T15:29:16.830Z,1.93
2022-11-17T15:31:49.625Z,1.50
2022-11-17T15:34:20.495Z,1.63
2022-11-17T15:36:53.129Z,1.80
2022-11-17T15:39:21.888Z,1.70
2022-11-17T15:41:50.983Z,1.80
2022-11-17T15:44:27.836Z,1.97
2022-11-17T15:46:58.645Z,1.90
2022-11-17T15:49:27.120Z,2.67
2022-11-17T15:51:59.023Z,2.70
2022-11-17T15:54:27.786Z,2.23
2022-11-17T15:57:00.709Z,2.30
2022-11-17T15:59:29.430Z,2.13
2022-11-17T16:01:59.848Z,1.97
2022-11-17T16:04:28.247Z,2.70
2022-11-17T16:06:58.579Z,2.60
2022-11-17T16:09:27.913Z,2.40
2022-11-17T16:11:56.507Z,3.70
2022-11-17T16:14:25.957Z,2.50
2022-11-17T16:16:55.346Z,2.20
2022-11-17T16:19:23.947Z,2.13
2022-11-17T16:21:53.311Z,1.90
2022-11-17T16:24:23.564Z,2.00
2022-11-17T16:26:52.302Z,3.50
2022-11-17T16:29:20.884Z,3.27
2022-11-17T16:31:50.817Z,3.77
2022-11-17T16:34:19.890Z,3.50
2022-11-17T16:36:49.680Z,3.67
2022-11-17T16:39:23.078Z,3.27
2022-11-17T16:41:54.762Z,2.80
2022-11-17T16:44:23.244Z,2.17
2022-11-17T16:46:52.737Z,2.63
2022-11-17T16:49:24.066Z,1.97
2022-11-17T16:51:54.859Z,2.10
2022-11-17T16:54:28.095Z,1.77
2022-11-17T16:56:59.610Z,1.60
2022-11-17T16:59:28.085Z,2.60
2022-11-17T17:01:57.826Z,2.80
2022-11-17T17:04:26.878Z,4.53
2022-11-17T17:06:55.077Z,4.67
2022-11-17T17:09:27.614Z,2.53
2022-11-17T17:11:58.580Z,1.77
2022-11-17T17:14:27.199Z,2.80
2022-11-17T17:16:56.658Z,1.97
2022-11-17T17:19:25.434Z,3.63
2022-11-17T17:22:00.781Z,1.83
2022-11-17T17:24:30.861Z,3.37
2022-11-17T17:27:02.019Z,1.40
2022-11-17T17:29:30.696Z,1.87
2022-11-17T17:31:59.158Z,2.40
2022-11-17T17:34:27.619Z,2.13
2022-11-17T17:36:56.183Z,1.83
2022-11-17T17:39:24.574Z,2.30
2022-11-17T17:41:52.993Z,2.17
2022-11-17T17:44:22.776Z,2.17
2022-11-17T17:46:51.352Z,2.30
2022-11-17T17:49:21.250Z,2.33
2022-11-17T17:51:49.895Z,2.90
2022-11-17T17:54:20.262Z,2.70
2022-11-17T17:56:49.156Z,2.50
2022-11-17T17:59:17.758Z,2.47
2022-11-17T18:01:49.806Z,2.60
2022-11-17T18:04:18.284Z,3.20
2022-11-17T18:06:48.594Z,2.90
2022-11-17T18:09:21.585Z,3.67
2022-11-17T18:11:51.510Z,4.87
2022-11-17T18:14:24.718Z,3.77
2022-11-17T18:16:56.702Z,3.70
2022-11-17T18:19:31.546Z,3.93
2022-11-17T18:22:01.678Z,4.87
2022-11-17T18:24:30.781Z,4.50
2022-11-17T18:27:00.557Z,5.60
2022-11-17T18:29:32.066Z,6.33
2022-11-17T18:32:01.830Z,8.00
2022-11-17T18:34:30.178Z,6.90
2022-11-17T18:36:58.798Z,8.03
2022-11-17T18:39:31.441Z,5.93
2022-11-17T18:42:01.099Z,8.63
2022-11-17T18:44:32.087Z,6.40
2022-11-17T18:47:03.285Z,8.03
2022-11-17T18:49:34.836Z,9.17
2022-11-17T18:52:05.113Z,7.50
2022-11-17T18:54:36.035Z,7.07
2022-11-17T18:57:04.321Z,6.30
2022-11-17T18:59:32.734Z,7.80
2022-11-17T19:02:02.580Z,7.33
2022-11-17T19:04:30.910Z,7.03
2022-11-17T19:06:59.437Z,6.43
2022-11-17T19:09:29.903Z,6.93
2022-11-17T19:11:58.432Z,7.97
2022-11-17T19:14:26.530Z,6.70
2022-11-17T19:16:55.532Z,7.57
2022-11-17T19:19:25.632Z,7.23
2022-11-17T19:21:54.004Z,7.50
2022-11-17T19:24:22.894Z,6.87
2022-11-17T19:26:51.666Z,7.33
2022-11-17T19:29:23.754Z,7.43
2022-11-17T19:31:53.673Z,7.17
2022-11-17T19:34:22.607Z,8.33
2022-11-17T19:36:53.088Z,7.67
2022-11-17T19:39:23.386Z,8.80
2022-11-17T19:41:53.329Z,9.40
2022-11-17T19:44:21.583Z,8.80
2022-11-17T19:46:50.115Z,8.33
2022-11-17T19:49:18.756Z,9.50
2022-11-17T19:51:47.978Z,8.27
2022-11-17T19:54:19.385Z,9.80
2022-11-17T19:56:47.943Z,9.47
2022-11-17T19:59:16.990Z,7.77
2022-11-17T20:01:46.504Z,9.23
2022-11-17T20:04:14.998Z,10.00
2022-11-17T20:06:44.127Z,9.53
2022-11-17T20:09:16.018Z,9.70
2022-11-17T20:11:48.032Z,9.40
2022-11-17T20:14:16.464Z,9.13
2022-11-17T20:16:44.658Z,9.30
2022-11-17T20:19:13.917Z,10.73
2022-11-17T20:21:42.402Z,11.77
2022-11-17T20:24:11.079Z,11.33
2022-11-17T20:26:44.651Z,10.00
2022-11-17T20:29:16.268Z,10.10
2022-11-17T20:31:47.166Z,9.23
2022-11-17T20:34:15.586Z,9.97
2022-11-17T20:36:46.186Z,10.27
2022-11-17T20:39:15.944Z,9.70
2022-11-17T20:41:46.713Z,10.37
2022-11-17T20:44:25.482Z,10.10
2022-11-17T20:46:57.328Z,9.90
2022-11-17T20:49:29.098Z,10.07
2022-11-17T20:51:57.609Z,10.27
2022-11-17T20:54:26.247Z,10.37
2022-11-17T20:56:55.096Z,11.30
2022-11-17T20:59:25.512Z,11.50
2022-11-17T21:01:58.267Z,11.53
2022-11-17T21:04:28.517Z,11.60
2022-11-17T21:06:57.021Z,10.80
2022-11-17T21:09:25.424Z,10.97
2022-11-17T21:12:00.582Z,10.43
2022-11-17T21:14:30.850Z,10.37
2022-11-17T21:17:00.676Z,10.67
2022-11-17T21:19:37.854Z,9.43
2022-11-17T21:22:08.107Z,9.03
2022-11-17T21:24:36.558Z,9.90
2022-11-17T21:27:05.384Z,9.33
2022-11-17T21:29:35.637Z,9.90
2022-11-17T21:32:04.553Z,9.73
2022-11-17T21:34:32.980Z,10.63
2022-11-17T21:37:01.380Z,11.50
2022-11-17T21:39:30.295Z,12.13
2022-11-17T21:41:59.906Z,12.17
2022-11-17T21:44:28.541Z,10.97
2022-11-17T21:46:58.856Z,11.27
2022-11-17T21:49:27.970Z,11.70
2022-11-17T21:51:57.131Z,11.33
2022-11-17T21:54:26.593Z,11.13
2022-11-17T21:56:55.188Z,11.40
2022-11-17T21:59:24.249Z,10.13
2022-11-17T22:01:52.509Z,10.73
2022-11-17T22:04:27.622Z,10.80
2022-11-17T22:06:56.091Z,10.43
2022-11-17T22:09:24.895Z,9.73
2022-11-17T22:11:53.303Z,10.03
2022-11-17T22:14:22.013Z,9.13
2022-11-17T22:16:52.211Z,8.40
2022-11-17T22:19:24.575Z,9.30
2022-11-17T22:21:54.639Z,8.13
2022-11-17T22:24:22.848Z,8.03
2022-11-17T22:26:53.322Z,8.20
2022-11-17T22:29:23.481Z,8.07
2022-11-17T22:31:52.391Z,8.90
2022-11-17T22:34:20.622Z,9.10
2022-11-17T22:36:50.711Z,8.63
2022-11-17T22:39:19.998Z,9.47
2022-11-17T22:41:51.761Z,9.20
2022-11-17T22:44:20.802Z,9.43
2022-11-17T22:46:49.401Z,8.70
2022-11-17T22:49:22.215Z,9.37
2022-11-17T22:52:07.286Z,11.07
2022-11-17T22:54:37.168Z,9.83
2022-11-17T22:57:05.719Z,9.97
2022-11-17T22:59:35.025Z,11.60
2022-11-17T23:02:03.434Z,12.13
2022-11-17T23:04:31.955Z,11.10
2022-11-17T23:07:02.767Z,12.03
2022-11-17T23:09:32.793Z,11.93
2022-11-17T23:12:02.473Z,12.10
2022-11-17T23:14:31.146Z,12.30
2022-11-17T23:16:59.824Z,12.57
2022-11-17T23:19:31.875Z,11.67
2022-11-17T23:22:01.823Z,12.27
2022-11-17T23:24:30.353Z,11.47
2022-11-17T23:26:58.569Z,12.10
2022-11-17T23:29:27.539Z,11.83
2022-11-17T23:31:56.082Z,10.97
2022-11-17T23:34:24.842Z,10.47
2022-11-17T23:36:52.970Z,10.90
2022-11-17T23:39:22.806Z,10.67
2022-11-17T23:41:51.764Z,10.73
2022-11-17T23:44:20.160Z,11.00
2022-11-17T23:46:48.518Z,10.73
2022-11-17T23:49:17.074Z,11.27
2022-11-17T23:51:45.714Z,11.83
2022-11-17T23:54:14.362Z,10.50
2022-11-17T23:56:44.499Z,11.97
2022-11-17T23:59:12.589Z,11.70
